createdAt,value
2018-10-17T00:00:14.936Z,14.01
2018-10-17T00:02:46.420Z,13.99
2018-10-17T00:05:16.328Z,13.93
2018-10-17T00:07:46.258Z,13.94
2018-10-17T00:10:16.961Z,13.95
2018-10-17T00:12:47.004Z,14.01
2018-10-17T00:15:17.305Z,13.92
2018-10-17T00:17:47.422Z,13.90
2018-10-17T00:20:17.278Z,13.85
2018-10-17T00:22:47.747Z,13.82
2018-10-17T00:25:18.158Z,13.76
2018-10-17T00:27:47.913Z,13.74
2018-10-17T00:30:19.341Z,13.72
2018-10-17T00:32:49.324Z,13.74
2018-10-17T00:35:20.298Z,13.70
2018-10-17T00:37:50.696Z,13.72
2018-10-17T00:40:21.343Z,13.80
2018-10-17T00:42:51.335Z,13.72
2018-10-17T00:45:21.216Z,13.66
2018-10-17T00:47:51.741Z,13.62
2018-10-17T00:50:21.528Z,13.76
2018-10-17T00:52:52.644Z,13.73
2018-10-17T00:55:23.830Z,13.69
2018-10-17T00:57:54.614Z,13.66
2018-10-17T01:00:25.581Z,13.68
2018-10-17T01:02:56.393Z,13.69
2018-10-17T01:05:25.893Z,13.68
2018-10-17T01:07:57.602Z,13.76
2018-10-17T01:10:29.584Z,13.78
2018-10-17T01:13:00.025Z,13.74
2018-10-17T01:15:30.887Z,13.69
2018-10-17T01:18:01.352Z,13.67
2018-10-17T01:20:32.054Z,13.66
2018-10-17T01:23:03.371Z,13.62
2018-10-17T01:25:33.834Z,13.58
2018-10-17T01:28:05.896Z,13.52
2018-10-17T01:30:35.970Z,13.44
2018-10-17T01:33:06.441Z,13.47
2018-10-17T01:35:37.576Z,13.54
2018-10-17T01:38:08.541Z,13.64
2018-10-17T01:40:39.181Z,13.48
2018-10-17T01:43:09.573Z,13.44
2018-10-17T01:45:39.459Z,13.40
2018-10-17T01:48:09.200Z,13.11
2018-10-17T01:50:39.284Z,13.29
2018-10-17T01:53:09.623Z,13.27
2018-10-17T01:55:39.552Z,13.28
2018-10-17T01:58:09.669Z,13.25
2018-10-17T02:00:39.474Z,13.24
2018-10-17T02:03:09.400Z,13.22
2018-10-17T02:05:39.346Z,13.22
2018-10-17T02:08:09.122Z,13.27
2018-10-17T02:10:39.164Z,13.15
2018-10-17T02:13:09.909Z,13.19
2018-10-17T02:15:39.497Z,13.20
2018-10-17T02:18:09.516Z,13.33
2018-10-17T02:20:39.521Z,13.30
2018-10-17T02:23:09.425Z,13.29
2018-10-17T02:25:39.094Z,13.36
2018-10-17T02:28:09.860Z,13.41
2018-10-17T02:30:39.698Z,13.35
2018-10-17T02:33:09.899Z,13.37
2018-10-17T02:35:40.148Z,13.36
2018-10-17T02:38:09.761Z,13.34
2018-10-17T02:40:40.019Z,13.43
2018-10-17T02:43:10.490Z,13.39
2018-10-17T02:45:40.196Z,13.37
2018-10-17T02:48:10.486Z,13.26
2018-10-17T02:50:40.398Z,13.26
2018-10-17T02:53:10.816Z,13.27
2018-10-17T02:55:41.317Z,13.27
2018-10-17T02:58:12.194Z,13.17
2018-10-17T03:00:43.146Z,13.17
2018-10-17T03:03:14.830Z,13.13
2018-10-17T03:05:45.131Z,13.08
2018-10-17T03:08:16.072Z,13.02
2018-10-17T03:10:46.450Z,12.98
2018-10-17T03:13:16.429Z,13.06
2018-10-17T03:15:46.449Z,13.11
2018-10-17T03:18:17.248Z,12.96
2018-10-17T03:20:47.386Z,12.89
2018-10-17T03:23:17.360Z,12.85
2018-10-17T03:25:47.222Z,12.91
2018-10-17T03:28:18.027Z,12.93
2018-10-17T03:30:48.229Z,12.84
2018-10-17T03:33:17.790Z,12.93
2018-10-17T03:35:47.754Z,12.84
2018-10-17T03:38:18.154Z,12.77
2018-10-17T03:40:47.798Z,12.75
2018-10-17T03:43:18.288Z,12.72
2018-10-17T03:45:48.451Z,12.67
2018-10-17T03:48:18.266Z,12.76
2018-10-17T03:50:47.986Z,12.57
2018-10-17T03:53:18.478Z,12.81
2018-10-17T03:55:48.394Z,12.71
2018-10-17T03:58:18.433Z,12.68
2018-10-17T04:00:48.668Z,12.64
2018-10-17T04:03:19.303Z,12.64
2018-10-17T04:05:49.104Z,12.71
2018-10-17T04:08:20.989Z,12.49
2018-10-17T04:10:59.395Z,12.62
2018-10-17T04:13:34.068Z,12.73
2018-10-17T04:16:04.076Z,12.63
2018-10-17T04:18:33.847Z,12.63
2018-10-17T04:21:04.352Z,12.71
2018-10-17T04:23:34.168Z,12.58
2018-10-17T04:26:03.908Z,12.66
2018-10-17T04:28:34.275Z,12.60
2018-10-17T04:31:04.185Z,12.63
2018-10-17T04:33:34.474Z,12.62
2018-10-17T04:36:05.033Z,12.60
2018-10-17T04:38:35.506Z,12.54
2018-10-17T04:41:07.006Z,12.52
2018-10-17T04:43:36.691Z,12.32
2018-10-17T04:46:06.680Z,12.56
2018-10-17T04:48:37.589Z,12.41
2018-10-17T04:51:07.555Z,12.38
2018-10-17T04:53:37.440Z,12.35
2018-10-17T04:56:07.539Z,12.29
2018-10-17T04:58:37.363Z,12.31
2018-10-17T05:01:07.174Z,12.28
2018-10-17T05:03:37.436Z,12.18
2018-10-17T05:06:08.701Z,12.11
2018-10-17T05:08:38.788Z,12.13
2018-10-17T05:11:08.853Z,12.19
2018-10-17T05:13:38.388Z,12.19
2018-10-17T05:16:09.932Z,12.01
2018-10-17T05:18:40.929Z,12.20
2018-10-17T05:21:11.188Z,12.21
2018-10-17T05:23:41.318Z,12.20
2018-10-17T05:26:11.154Z,12.18
2018-10-17T05:28:40.698Z,12.14
2018-10-17T05:31:10.477Z,12.11
2018-10-17T05:33:40.673Z,12.08
2018-10-17T05:36:11.850Z,12.08
2018-10-17T05:38:41.539Z,11.92
2018-10-17T05:41:11.297Z,11.88
2018-10-17T05:43:42.133Z,11.92
2018-10-17T05:46:12.372Z,11.86
2018-10-17T05:48:41.905Z,12.01
2018-10-17T05:51:11.839Z,11.94
2018-10-17T05:53:42.289Z,11.92
2018-10-17T05:56:11.960Z,12.00
2018-10-17T05:58:41.787Z,12.07
2018-10-17T06:01:12.567Z,12.09
2018-10-17T06:03:42.560Z,11.98
2018-10-17T06:06:12.538Z,12.02
2018-10-17T06:08:42.597Z,12.00
2018-10-17T06:11:12.288Z,12.00
2018-10-17T06:13:42.200Z,11.99
2018-10-17T06:16:12.561Z,11.93
2018-10-17T06:18:42.491Z,11.98
2018-10-17T06:21:13.393Z,11.94
2018-10-17T06:23:44.582Z,11.99
2018-10-17T06:26:15.881Z,12.03
2018-10-17T06:28:45.836Z,11.82
2018-10-17T06:31:15.904Z,12.15
2018-10-17T06:33:45.812Z,12.19
2018-10-17T06:36:15.699Z,12.33
2018-10-17T06:38:45.358Z,12.42
2018-10-17T06:41:15.278Z,12.52
2018-10-17T06:43:45.515Z,12.64
2018-10-17T06:46:16.094Z,12.73
2018-10-17T06:48:46.012Z,12.75
2018-10-17T06:51:16.965Z,12.69
2018-10-17T06:53:47.294Z,12.74
2018-10-17T06:56:16.962Z,12.80
2018-10-17T06:58:47.739Z,12.95
2018-10-17T07:01:17.826Z,12.99
2018-10-17T07:03:47.685Z,13.19
2018-10-17T07:06:17.587Z,13.29
2018-10-17T07:08:48.453Z,13.35
2018-10-17T07:11:18.437Z,13.34
2018-10-17T07:13:48.401Z,13.43
2018-10-17T07:16:18.062Z,13.50
2018-10-17T07:18:47.567Z,13.77
2018-10-17T07:21:17.134Z,14.03
2018-10-17T07:23:46.789Z,14.24
2018-10-17T07:26:17.228Z,14.22
2018-10-17T07:28:47.984Z,14.32
2018-10-17T07:31:18.129Z,14.51
2018-10-17T07:33:48.694Z,14.63
2018-10-17T07:36:19.101Z,14.68
2018-10-17T07:38:49.055Z,14.74
2018-10-17T07:41:19.480Z,14.88
2018-10-17T07:43:49.071Z,15.00
2018-10-17T07:46:19.342Z,15.08
2018-10-17T07:48:49.333Z,15.30
2018-10-17T07:51:20.077Z,15.44
2018-10-17T07:53:49.973Z,15.50
2018-10-17T07:56:19.813Z,15.55
2018-10-17T07:58:49.562Z,15.45
2018-10-17T08:01:19.370Z,15.58
2018-10-17T08:03:49.237Z,15.51
2018-10-17T08:06:20.763Z,15.58
2018-10-17T08:08:52.424Z,15.48
2018-10-17T08:11:22.211Z,15.44
2018-10-17T08:13:51.878Z,15.58
2018-10-17T08:16:22.420Z,15.76
2018-10-17T08:18:52.846Z,15.78
2018-10-17T08:21:22.557Z,15.71
2018-10-17T08:23:54.911Z,15.57
2018-10-17T08:26:26.766Z,15.94
2018-10-17T08:28:56.800Z,16.14
2018-10-17T08:31:27.405Z,16.05
2018-10-17T08:33:56.986Z,16.21
2018-10-17T08:36:26.620Z,16.24
2018-10-17T08:38:56.479Z,16.08
2018-10-17T08:41:26.350Z,16.32
2018-10-17T08:43:56.946Z,16.17
2018-10-17T08:46:26.937Z,16.16
2018-10-17T08:48:56.752Z,16.51
2018-10-17T08:51:27.281Z,16.40
2018-10-17T08:53:57.663Z,16.73
2018-10-17T08:56:27.943Z,16.58
2018-10-17T08:58:59.498Z,16.47
2018-10-17T09:01:29.324Z,16.80
2018-10-17T09:04:00.100Z,16.78
2018-10-17T09:06:30.459Z,16.53
2018-10-17T09:09:00.700Z,16.60
2018-10-17T09:11:30.464Z,16.62
2018-10-17T09:14:00.990Z,16.59
2018-10-17T09:16:30.880Z,16.64
2018-10-17T09:19:00.395Z,16.79
2018-10-17T09:21:31.094Z,16.85
2018-10-17T09:24:02.040Z,16.87
2018-10-17T09:26:31.674Z,17.07
2018-10-17T09:29:01.167Z,17.05
2018-10-17T09:31:32.109Z,17.16
2018-10-17T09:34:02.993Z,17.20
2018-10-17T09:36:32.640Z,17.54
2018-10-17T09:39:03.157Z,17.67
2018-10-17T09:41:35.052Z,17.66
2018-10-17T09:44:06.578Z,17.83
2018-10-17T09:46:36.581Z,17.94
2018-10-17T09:49:06.837Z,18.01
2018-10-17T09:51:36.348Z,17.84
2018-10-17T09:54:07.635Z,17.95
2018-10-17T09:56:38.248Z,18.16
2018-10-17T09:59:08.430Z,18.10
2018-10-17T10:01:43.628Z,18.21
2018-10-17T10:04:13.375Z,18.39
2018-10-17T10:06:43.576Z,18.46
2018-10-17T10:09:13.857Z,18.57
2018-10-17T10:11:43.638Z,18.74
2018-10-17T10:14:15.501Z,18.81
2018-10-17T10:16:46.314Z,18.84
2018-10-17T10:19:17.055Z,18.94
2018-10-17T10:21:47.869Z,19.07
2018-10-17T10:24:17.901Z,19.00
2018-10-17T10:26:47.843Z,18.94
2018-10-17T10:29:18.713Z,19.20
2018-10-17T10:31:49.048Z,19.28
2018-10-17T10:34:18.602Z,19.33
2018-10-17T10:36:50.210Z,19.46
2018-10-17T10:39:20.921Z,19.50
2018-10-17T10:41:51.052Z,19.67
2018-10-17T10:44:20.947Z,19.75
2018-10-17T10:46:50.665Z,19.86
2018-10-17T10:49:21.736Z,20.05
2018-10-17T10:51:52.855Z,20.19
2018-10-17T10:54:24.810Z,20.25
2018-10-17T10:56:54.524Z,20.26
2018-10-17T10:59:26.119Z,20.32
2018-10-17T11:01:55.867Z,20.47
2018-10-17T11:04:25.589Z,20.70
2018-10-17T11:06:55.673Z,20.73
2018-10-17T11:09:26.663Z,20.93
2018-10-17T11:11:58.031Z,21.05
2018-10-17T11:14:29.019Z,21.23
2018-10-17T11:16:59.097Z,21.33
2018-10-17T11:19:29.459Z,20.89
2018-10-17T11:21:59.936Z,21.15
2018-10-17T11:24:30.347Z,21.13
2018-10-17T11:27:00.444Z,21.24
2018-10-17T11:29:30.194Z,21.24
2018-10-17T11:32:03.147Z,21.61
2018-10-17T11:34:32.781Z,21.72
2018-10-17T11:37:02.551Z,21.84
2018-10-17T11:39:32.969Z,21.86
2018-10-17T11:42:02.679Z,21.92
2018-10-17T11:44:33.145Z,21.84
2018-10-17T11:47:05.038Z,21.80
2018-10-17T11:49:34.731Z,21.97
2018-10-17T11:52:04.654Z,22.10
2018-10-17T11:54:34.482Z,22.09
2018-10-17T11:57:04.734Z,22.08
2018-10-17T11:59:35.601Z,22.19
2018-10-17T12:02:06.154Z,22.35
2018-10-17T12:04:37.378Z,22.46
2018-10-17T12:07:07.127Z,22.55
2018-10-17T12:09:37.047Z,22.59
2018-10-17T12:12:06.909Z,22.72
2018-10-17T12:14:38.547Z,22.74
2018-10-17T12:17:10.692Z,22.87
2018-10-17T12:19:40.332Z,22.79
2018-10-17T12:22:09.969Z,22.43
2018-10-17T12:24:41.435Z,22.66
2018-10-17T12:27:12.461Z,22.56
2018-10-17T12:29:43.697Z,22.93
2018-10-17T12:32:14.680Z,22.69
2018-10-17T12:34:44.927Z,22.72
2018-10-17T12:37:15.018Z,22.79
2018-10-17T12:39:45.372Z,22.92
2018-10-17T12:42:15.598Z,23.07
2018-10-17T12:44:47.555Z,23.04
2018-10-17T12:47:18.752Z,23.20
2018-10-17T12:49:49.077Z,23.14
2018-10-17T12:52:19.159Z,23.24
2018-10-17T12:54:48.988Z,23.27
2018-10-17T12:57:18.838Z,23.31
2018-10-17T12:59:49.840Z,23.11
2018-10-17T13:02:21.445Z,23.16
2018-10-17T13:04:51.404Z,22.94
2018-10-17T13:07:21.174Z,23.10
2018-10-17T13:09:51.814Z,23.09
2018-10-17T13:12:22.749Z,23.23
2018-10-17T13:14:53.165Z,23.36
2018-10-17T13:17:24.777Z,23.35
2018-10-17T13:19:57.954Z,23.35
2018-10-17T13:22:29.546Z,23.47
2018-10-17T13:24:59.097Z,23.58
2018-10-17T13:27:30.493Z,23.69
2018-10-17T13:30:01.934Z,23.84
2018-10-17T13:32:32.049Z,23.70
2018-10-17T13:35:02.327Z,23.69
2018-10-17T13:37:34.077Z,23.77
2018-10-17T13:40:05.317Z,23.75
2018-10-17T13:42:36.212Z,23.45
2018-10-17T13:45:06.849Z,23.60
2018-10-17T13:47:37.322Z,23.64
2018-10-17T13:50:08.139Z,23.50
2018-10-17T13:52:40.146Z,23.67
2018-10-17T13:55:12.432Z,23.73
2018-10-17T13:57:42.666Z,23.73
2018-10-17T14:00:14.351Z,23.76
2018-10-17T14:02:45.019Z,23.83
2018-10-17T14:05:15.930Z,23.88
2018-10-17T14:07:45.500Z,23.81
2018-10-17T14:10:15.989Z,23.87
2018-10-17T14:12:48.489Z,23.91
2018-10-17T14:15:18.647Z,23.85
2018-10-17T14:17:49.657Z,23.81
2018-10-17T14:20:22.365Z,23.73
2018-10-17T14:22:52.671Z,23.64
2018-10-17T14:25:22.467Z,23.71
2018-10-17T14:27:58.119Z,23.75
2018-10-17T14:30:30.284Z,23.65
2018-10-17T14:33:00.760Z,23.66
2018-10-17T14:35:31.698Z,23.65
2018-10-17T14:38:03.062Z,23.71
2018-10-17T14:40:35.767Z,23.71
2018-10-17T14:43:06.122Z,23.78
2018-10-17T14:45:35.792Z,23.80
2018-10-17T14:48:07.513Z,23.77
2018-10-17T14:50:37.303Z,23.64
2018-10-17T14:53:18.192Z,23.49
2018-10-17T14:56:02.923Z,23.20
2018-10-17T14:58:34.503Z,23.09
2018-10-17T15:01:07.613Z,22.75
2018-10-17T15:03:39.012Z,22.68
2018-10-17T15:06:16.105Z,22.47
2018-10-17T15:08:47.452Z,22.42
2018-10-17T15:11:20.794Z,22.40
2018-10-17T15:13:54.620Z,22.44
2018-10-17T15:16:31.713Z,22.39
2018-10-17T15:19:26.611Z,22.42
2018-10-17T15:22:05.170Z,22.28
2018-10-17T15:24:40.557Z,22.16
2018-10-17T15:27:19.420Z,21.95
2018-10-17T15:29:53.284Z,21.82
2018-10-17T15:32:27.138Z,21.61
2018-10-17T15:35:00.041Z,21.52
2018-10-17T15:37:31.707Z,21.44
2018-10-17T15:40:02.287Z,21.31
2018-10-17T15:45:25.160Z,20.98
2018-10-17T15:47:57.006Z,20.88
2018-10-17T15:50:27.460Z,20.67
2018-10-17T15:53:02.849Z,20.58
2018-10-17T15:55:36.409Z,20.30
2018-10-17T15:58:13.020Z,20.12
2018-10-17T16:00:47.630Z,19.98
2018-10-17T16:03:19.936Z,19.98
2018-10-17T16:05:50.892Z,19.87
2018-10-17T16:08:22.629Z,19.46
2018-10-17T16:11:00.723Z,19.51
2018-10-17T16:13:39.796Z,19.25
2018-10-17T16:16:18.484Z,19.30
2018-10-17T16:18:51.941Z,19.16
2018-10-17T16:21:23.099Z,19.02
2018-10-17T16:23:57.641Z,18.93
2018-10-17T16:26:33.531Z,18.77
2018-10-17T16:29:19.696Z,18.65
2018-10-17T16:31:49.949Z,18.42
2018-10-17T16:34:21.390Z,18.44
2018-10-17T16:36:53.163Z,18.38
2018-10-17T16:39:25.849Z,18.27
2018-10-17T16:41:55.918Z,18.19
2018-10-17T16:44:27.898Z,18.08
2018-10-17T16:46:57.866Z,17.95
2018-10-17T16:49:27.674Z,17.88
2018-10-17T16:51:59.596Z,17.76
2018-10-17T16:54:30.648Z,17.69
2018-10-17T16:57:00.326Z,17.66
2018-10-17T16:59:30.422Z,17.53
2018-10-17T17:02:02.398Z,17.47
2018-10-17T17:04:32.190Z,17.40
2018-10-17T17:07:07.374Z,17.38
2018-10-17T17:09:41.285Z,17.32
2018-10-17T17:12:15.789Z,17.22
2018-10-17T17:14:51.823Z,17.25
2018-10-17T17:17:26.209Z,17.17
2018-10-17T17:19:58.558Z,17.11
2018-10-17T17:22:32.274Z,17.04
2018-10-17T17:25:12.267Z,16.99
2018-10-17T17:27:44.037Z,16.95
2018-10-17T17:30:20.649Z,16.87
2018-10-17T17:32:54.505Z,16.80
2018-10-17T17:35:24.470Z,16.72
2018-10-17T17:37:57.301Z,16.71
2018-10-17T17:40:27.939Z,16.60
2018-10-17T17:42:59.121Z,16.56
2018-10-17T17:45:30.637Z,16.52
2018-10-17T17:48:02.547Z,16.55
2018-10-17T17:50:34.132Z,16.51
2018-10-17T17:53:05.428Z,16.46
2018-10-17T17:55:36.289Z,16.46
2018-10-17T17:58:07.562Z,16.40
2018-10-17T18:00:39.486Z,16.38
2018-10-17T18:03:09.464Z,16.32
2018-10-17T18:05:40.552Z,16.29
2018-10-17T18:08:14.569Z,16.25
2018-10-17T18:10:46.419Z,16.23
2018-10-17T18:13:17.164Z,16.14
2018-10-17T18:15:47.318Z,16.10
2018-10-17T18:18:17.828Z,16.07
2018-10-17T18:20:48.072Z,16.01
2018-10-17T18:23:22.514Z,16.02
2018-10-17T18:25:52.861Z,15.96
2018-10-17T18:28:23.894Z,15.94
2018-10-17T18:30:54.213Z,15.91
2018-10-17T18:33:25.094Z,15.89
2018-10-17T18:35:56.734Z,15.82
2018-10-17T18:38:27.784Z,15.85
2018-10-17T18:40:57.855Z,15.79
2018-10-17T18:43:27.999Z,15.76
2018-10-17T18:45:58.198Z,15.69
2018-10-17T18:48:28.769Z,15.64
2018-10-17T18:50:59.675Z,15.58
2018-10-17T18:53:30.199Z,15.57
2018-10-17T18:56:00.169Z,15.55
2018-10-17T18:58:30.000Z,15.60
2018-10-17T19:01:00.503Z,15.62
2018-10-17T19:03:33.031Z,15.58
2018-10-17T19:06:02.789Z,15.56
2018-10-17T19:08:35.991Z,15.56
2018-10-17T19:11:06.779Z,15.51
2018-10-17T19:13:36.771Z,15.34
2018-10-17T19:16:07.427Z,15.45
2018-10-17T19:18:37.357Z,15.43
2018-10-17T19:21:07.622Z,15.42
2018-10-17T19:23:37.571Z,15.48
2018-10-17T19:26:08.668Z,15.43
2018-10-17T19:29:02.531Z,15.41
2018-10-17T19:31:34.000Z,15.37
2018-10-17T19:34:03.675Z,15.38
2018-10-17T19:36:34.731Z,15.36
2018-10-17T19:39:10.054Z,15.36
2018-10-17T19:41:43.458Z,15.34
2018-10-17T19:44:16.866Z,15.32
2018-10-17T19:46:46.814Z,15.31
2018-10-17T19:49:17.878Z,15.32
2018-10-17T19:51:48.792Z,15.26
2018-10-17T19:54:22.678Z,15.17
2018-10-17T19:56:53.261Z,15.10
2018-10-17T19:59:23.516Z,15.16
2018-10-17T20:05:15.424Z,15.15
2018-10-17T20:07:46.350Z,15.26
2018-10-17T20:10:18.155Z,15.21
2018-10-17T20:12:48.769Z,15.14
2018-10-17T20:15:20.548Z,15.18
2018-10-17T20:17:52.225Z,15.16
2018-10-17T20:20:22.168Z,15.14
2018-10-17T20:22:52.493Z,15.22
2018-10-17T20:25:23.576Z,15.23
2018-10-17T20:27:53.405Z,15.22
2018-10-17T20:30:23.677Z,15.21
2018-10-17T20:32:54.898Z,15.23
2018-10-17T20:35:25.262Z,15.24
2018-10-17T20:37:55.789Z,15.26
2018-10-17T20:40:27.084Z,15.07
2018-10-17T20:42:57.255Z,15.29
2018-10-17T20:45:28.625Z,15.27
2018-10-17T20:47:58.841Z,15.27
2018-10-17T20:50:28.714Z,15.16
2018-10-17T20:53:00.689Z,15.19
2018-10-17T20:55:33.105Z,15.19
2018-10-17T20:58:04.156Z,15.11
2018-10-17T21:00:36.207Z,14.99
2018-10-17T21:03:06.757Z,14.99
2018-10-17T21:05:37.443Z,15.00
2018-10-17T21:08:08.665Z,14.95
2018-10-17T21:10:42.130Z,14.90
2018-10-17T21:13:12.308Z,14.91
2018-10-17T21:15:42.924Z,14.87
2018-10-17T21:18:13.927Z,14.81
2018-10-17T21:20:44.530Z,14.82
2018-10-17T21:23:15.023Z,14.79
2018-10-17T21:25:44.884Z,14.75
2018-10-17T21:28:15.879Z,14.72
2018-10-17T21:30:46.022Z,14.65
2018-10-17T21:33:16.154Z,14.62
2018-10-17T21:35:46.106Z,14.57
2018-10-17T21:38:17.376Z,14.53
2018-10-17T21:40:47.826Z,14.50
2018-10-17T21:43:17.930Z,14.47
2018-10-17T21:45:50.115Z,14.46
2018-10-17T21:48:19.908Z,14.42
2018-10-17T21:50:50.461Z,14.33
2018-10-17T21:53:20.882Z,14.38
2018-10-17T21:55:51.253Z,14.35
2018-10-17T21:58:21.434Z,14.35
2018-10-17T22:00:51.751Z,14.36
2018-10-17T22:03:22.479Z,14.36
2018-10-17T22:05:52.637Z,14.37
2018-10-17T22:08:23.182Z,14.27
2018-10-17T22:10:54.802Z,14.21
2018-10-17T22:13:26.312Z,14.00
2018-10-17T22:15:57.432Z,13.98
2018-10-17T22:18:27.896Z,13.96
2018-10-17T22:20:58.210Z,14.00
2018-10-17T22:23:29.478Z,13.85
2018-10-17T22:25:59.747Z,13.78
2018-10-17T22:28:31.100Z,13.86
2018-10-17T22:31:01.709Z,13.90
2018-10-17T22:33:32.316Z,13.75
2018-10-17T22:36:03.221Z,13.65
2018-10-17T22:38:33.269Z,13.74
2018-10-17T22:41:05.334Z,13.73
2018-10-17T22:43:37.312Z,13.84
2018-10-17T22:46:08.598Z,13.78
2018-10-17T22:48:39.186Z,13.77
2018-10-17T22:51:09.927Z,13.77
2018-10-17T22:53:40.933Z,13.75
2018-10-17T22:56:11.544Z,13.72
2018-10-17T22:58:42.304Z,13.67
2018-10-17T23:01:12.318Z,13.55
2018-10-17T23:03:42.878Z,13.44
2018-10-17T23:06:13.990Z,13.47
2018-10-17T23:08:45.402Z,13.51
2018-10-17T23:11:15.454Z,13.55
2018-10-17T23:13:46.131Z,13.55
2018-10-17T23:16:16.596Z,13.50
2018-10-17T23:18:46.386Z,13.47
2018-10-17T23:21:16.671Z,13.41
2018-10-17T23:23:47.060Z,13.34
2018-10-17T23:26:17.090Z,13.35
2018-10-17T23:28:47.039Z,13.33
2018-10-17T23:31:18.555Z,13.32
2018-10-17T23:33:49.282Z,13.33
2018-10-17T23:36:19.626Z,13.31
2018-10-17T23:38:52.089Z,13.37
2018-10-17T23:41:22.817Z,13.37
2018-10-17T23:43:54.600Z,13.37
2018-10-17T23:46:24.838Z,13.35
2018-10-17T23:48:54.749Z,13.27
2018-10-17T23:51:24.744Z,13.32
2018-10-17T23:53:54.959Z,13.36
2018-10-17T23:56:25.141Z,13.26
2018-10-17T23:58:55.433Z,13.21
